Aéroclub Castres-Mazamet
ACCUEIL




METAR
LFCK 031730Z AUTO 32008KT 9999 FEW041 BKN120 BKN140 24/16 Q1015 NOSIG



Liens utiles


F.F.A
Météo France
OLIVIA
SIA
D.G.A.C

Bienvenue à l'aéroclub de Castres-Mazamet


.


               


Actualités

 Assemblée Générale   
Publié le 30-Juin-2021    
L'assemblée générale du club a eu lieu le vendredi 25 juin 2021 à l'hôtel Mercure.


 Nouveaux pilotes   
Publié le 05-May-2021    
2 nouveaux pilotes viennent de réussir leurs examens. Il s'agit de >> Adrien Tafanel (ABL+LAPL+PPL) et >> Robin Vidal (PPL) Félicitations à tous les deux !


 Séminaire Sécurité des Vols du pilote privé Avion & ULM Edition 2021   
Publié le 14-Apr-2021    
Bonjour, Co-organisé par l'AC-ENAC et l'ACAT, ce séminaire s'adresse aux élèves, aux pilotes, aux instructeurs et encadrants des aéroclubs. >>>Renseignements auprès du Bureau de l'Aéroclub. Inscriptions: seminaire.SV.2021@gmail.com


 Badge d'accés   
Publié le 27-Feb-2021    
Un nouveau système de badges pour accéder au club se met en place. Il faut venir le récupérer au bureau, avec une pièce d'identité. Les anciens badges ne seront bientôt plus valables. Merci d'avance.


Voir plus